createdAt,value
2022-12-15T00:01:59.729Z,13.90
2022-12-15T00:04:45.223Z,15.27
2022-12-15T00:07:30.445Z,13.83
2022-12-15T00:10:15.905Z,15.37
2022-12-15T00:13:01.034Z,16.00
2022-12-15T00:15:46.422Z,15.63
2022-12-15T00:18:31.864Z,15.93
2022-12-15T00:21:18.099Z,17.47
2022-12-15T00:24:03.420Z,16.67
2022-12-15T00:26:48.714Z,17.17
2022-12-15T00:29:34.043Z,16.63
2022-12-15T00:32:19.424Z,17.33
2022-12-15T00:35:04.804Z,16.83
2022-12-15T00:37:50.097Z,17.90
2022-12-15T00:40:17.535Z,16.00
2022-12-15T00:42:47.754Z,17.83
2022-12-15T00:45:16.545Z,17.90
2022-12-15T00:47:43.211Z,17.27
2022-12-15T00:50:28.715Z,17.73
2022-12-15T00:53:14.032Z,17.00
2022-12-15T00:55:59.446Z,17.17
2022-12-15T00:58:44.798Z,16.93
2022-12-15T01:01:30.396Z,17.03
2022-12-15T01:04:15.681Z,16.13
2022-12-15T01:07:00.827Z,17.47
2022-12-15T01:09:46.251Z,17.43
2022-12-15T01:12:31.720Z,17.13
2022-12-15T01:15:17.117Z,15.80
2022-12-15T01:18:02.438Z,16.43
2022-12-15T01:20:32.663Z,16.57
2022-12-15T01:22:59.529Z,15.63
2022-12-15T01:25:27.443Z,16.87
2022-12-15T01:27:54.187Z,16.03
2022-12-15T01:30:23.679Z,18.13
2022-12-15T01:32:50.389Z,17.87
2022-12-15T01:35:17.616Z,16.53
2022-12-15T01:37:45.193Z,16.77
2022-12-15T01:40:33.803Z,17.10
2022-12-15T01:43:01.068Z,17.10
2022-12-15T01:45:30.683Z,16.17
2022-12-15T01:48:11.991Z,17.03
2022-12-15T01:50:53.523Z,17.27
2022-12-15T01:53:20.217Z,16.87
2022-12-15T01:55:48.059Z,16.03
2022-12-15T01:58:18.553Z,18.07
2022-12-15T02:00:45.327Z,17.40
2022-12-15T02:03:13.145Z,16.67
2022-12-15T02:05:41.220Z,16.40
2022-12-15T02:08:09.453Z,15.93
2022-12-15T02:10:57.447Z,16.03
2022-12-15T02:13:53.133Z,16.87
2022-12-15T02:16:38.536Z,16.40
2022-12-15T02:19:20.536Z,16.13
2022-12-15T02:22:05.508Z,16.77
2022-12-15T02:24:49.823Z,15.07
2022-12-15T02:27:43.119Z,16.07
2022-12-15T02:30:15.602Z,16.37
2022-12-15T02:32:58.903Z,16.17
2022-12-15T02:35:59.279Z,15.20
2022-12-15T02:38:41.429Z,14.87
2022-12-15T02:41:34.120Z,14.60
2022-12-15T02:44:11.296Z,15.73
2022-12-15T02:46:54.123Z,14.93
2022-12-15T02:49:39.828Z,15.50
2022-12-15T02:52:37.149Z,14.93
2022-12-15T02:55:19.771Z,15.00
2022-12-15T02:58:00.790Z,14.90
2022-12-15T03:00:30.379Z,14.63
2022-12-15T03:02:57.221Z,15.07
2022-12-15T03:05:25.067Z,14.57
2022-12-15T03:07:54.156Z,14.33
2022-12-15T03:10:24.395Z,13.87
2022-12-15T03:12:52.012Z,14.93
2022-12-15T03:15:19.522Z,13.93
2022-12-15T03:17:46.381Z,14.20
2022-12-15T03:20:13.321Z,14.57
2022-12-15T03:22:40.242Z,14.80
2022-12-15T03:25:07.234Z,15.03
2022-12-15T03:27:35.041Z,15.10
2022-12-15T03:30:01.869Z,14.90
2022-12-15T03:32:29.687Z,14.40
2022-12-15T03:34:59.002Z,14.97
2022-12-15T03:37:25.642Z,14.43
2022-12-15T03:39:52.199Z,13.87
2022-12-15T03:42:38.822Z,14.90
2022-12-15T03:45:06.057Z,14.03
2022-12-15T03:47:32.669Z,14.57
2022-12-15T03:49:59.349Z,14.10
2022-12-15T03:52:26.012Z,14.70
2022-12-15T03:54:52.697Z,15.03
2022-12-15T03:57:19.363Z,13.30
2022-12-15T03:59:46.003Z,13.73
2022-12-15T04:02:12.780Z,13.23
2022-12-15T04:04:39.664Z,13.90
2022-12-15T04:07:06.301Z,12.67
2022-12-15T04:09:32.992Z,12.77
2022-12-15T04:11:59.619Z,12.63
2022-12-15T04:14:26.258Z,12.60
2022-12-15T04:16:52.897Z,12.60
2022-12-15T04:19:38.342Z,13.20
2022-12-15T04:22:05.084Z,14.10
2022-12-15T04:24:50.424Z,13.47
2022-12-15T04:27:36.403Z,14.00
2022-12-15T04:30:21.889Z,13.70
2022-12-15T04:33:07.066Z,12.87
2022-12-15T04:35:53.543Z,12.77
2022-12-15T04:38:43.917Z,12.43
2022-12-15T04:41:37.928Z,13.10
2022-12-15T04:44:24.342Z,12.63
2022-12-15T04:47:09.924Z,12.67
2022-12-15T04:49:55.342Z,12.70
2022-12-15T04:52:40.660Z,11.43
2022-12-15T04:55:26.627Z,10.30
2022-12-15T04:58:12.208Z,8.40
2022-12-15T05:00:57.514Z,7.83
2022-12-15T05:03:42.971Z,8.00
2022-12-15T05:06:28.382Z,8.50
2022-12-15T05:09:13.795Z,8.13
2022-12-15T05:11:59.035Z,8.40
2022-12-15T05:14:44.377Z,8.70
2022-12-15T05:17:29.831Z,9.40
2022-12-15T05:20:15.131Z,9.07
2022-12-15T05:23:00.568Z,9.43
2022-12-15T05:25:46.085Z,10.20
2022-12-15T05:28:31.503Z,10.90
2022-12-15T05:31:16.867Z,10.97
2022-12-15T05:33:43.655Z,11.37
2022-12-15T05:36:10.384Z,11.00
2022-12-15T05:38:37.049Z,10.60
2022-12-15T05:41:03.726Z,11.40
2022-12-15T05:43:30.977Z,12.00
2022-12-15T05:46:04.116Z,11.60
2022-12-15T05:48:30.875Z,11.60
2022-12-15T05:50:57.484Z,11.77
2022-12-15T05:53:24.121Z,11.17
2022-12-15T05:55:50.758Z,10.67
2022-12-15T05:58:17.359Z,10.93
2022-12-15T06:00:43.966Z,11.33
2022-12-15T06:03:10.638Z,11.20
2022-12-15T06:05:37.434Z,11.80
2022-12-15T06:08:04.237Z,11.70
2022-12-15T06:10:30.917Z,11.40
2022-12-15T06:12:57.524Z,12.60
2022-12-15T06:15:24.192Z,14.50
2022-12-15T06:17:53.352Z,13.07
2022-12-15T06:20:20.377Z,12.77
2022-12-15T06:22:50.048Z,14.67
2022-12-15T06:25:17.690Z,15.80
2022-12-15T06:27:44.294Z,17.20
2022-12-15T06:30:11.267Z,15.57
2022-12-15T06:32:37.908Z,14.73
2022-12-15T06:35:04.972Z,15.10
2022-12-15T06:37:31.783Z,14.47
2022-12-15T06:39:58.809Z,13.60
2022-12-15T06:42:25.566Z,14.10
2022-12-15T06:44:52.367Z,13.80
2022-12-15T06:47:19.056Z,12.63
2022-12-15T06:49:45.829Z,10.00
2022-12-15T06:52:12.610Z,10.37
2022-12-15T06:54:39.261Z,10.07
2022-12-15T06:57:05.870Z,9.77
2022-12-15T06:59:32.535Z,9.43
2022-12-15T07:02:00.590Z,9.67
2022-12-15T07:04:27.496Z,9.03
2022-12-15T07:06:54.211Z,9.27
2022-12-15T07:09:20.973Z,9.27
2022-12-15T07:11:50.263Z,9.70
2022-12-15T07:14:17.021Z,9.43
2022-12-15T07:16:43.756Z,10.20
2022-12-15T07:19:14.041Z,9.30
2022-12-15T07:21:41.494Z,9.90
2022-12-15T07:24:10.985Z,10.23
2022-12-15T07:26:37.676Z,10.33
2022-12-15T07:29:04.615Z,10.37
2022-12-15T07:31:31.997Z,10.70
2022-12-15T07:33:59.251Z,9.77
2022-12-15T07:36:27.536Z,9.63
2022-12-15T07:39:00.857Z,10.30
2022-12-15T07:41:28.602Z,9.77
2022-12-15T07:43:55.479Z,10.33
2022-12-15T07:46:23.888Z,10.27
2022-12-15T07:48:51.206Z,10.00
2022-12-15T07:51:20.147Z,10.23
2022-12-15T07:53:49.835Z,10.10
2022-12-15T07:56:17.139Z,11.07
2022-12-15T07:58:44.214Z,10.30
2022-12-15T08:01:13.355Z,11.63
2022-12-15T08:03:40.955Z,10.90
2022-12-15T08:06:12.878Z,10.73
2022-12-15T08:08:40.543Z,10.67
2022-12-15T08:11:09.234Z,9.80
2022-12-15T08:16:23.956Z,12.20
2022-12-15T08:18:50.711Z,12.90
2022-12-15T08:21:17.750Z,12.37
2022-12-15T08:23:44.899Z,10.57
2022-12-15T08:26:14.445Z,10.87
2022-12-15T08:28:42.093Z,10.70
2022-12-15T08:31:20.226Z,11.80
2022-12-15T08:33:48.001Z,11.13
2022-12-15T08:36:17.188Z,10.17
2022-12-15T08:38:45.493Z,9.57
2022-12-15T08:41:24.088Z,10.40
2022-12-15T08:43:51.310Z,9.87
2022-12-15T08:46:20.127Z,10.20
2022-12-15T08:48:47.363Z,10.27
2022-12-15T08:51:14.684Z,9.73
2022-12-15T08:53:41.710Z,10.37
2022-12-15T08:56:15.682Z,10.67
2022-12-15T08:58:43.359Z,11.03
2022-12-15T09:01:22.449Z,11.43
2022-12-15T09:03:51.830Z,11.53
2022-12-15T09:06:21.508Z,11.70
2022-12-15T09:08:50.574Z,11.60
2022-12-15T09:11:18.028Z,11.63
2022-12-15T09:13:44.726Z,11.37
2022-12-15T09:16:15.293Z,11.97
2022-12-15T09:18:44.088Z,11.70
2022-12-15T09:21:11.788Z,11.90
2022-12-15T09:23:39.281Z,12.17
2022-12-15T09:26:11.627Z,11.43
2022-12-15T09:28:38.969Z,11.97
2022-12-15T09:31:08.354Z,9.83
2022-12-15T09:33:36.005Z,9.83
2022-12-15T09:36:04.573Z,10.97
2022-12-15T09:38:34.190Z,10.70
2022-12-15T09:41:09.522Z,11.17
2022-12-15T09:43:46.950Z,11.53
2022-12-15T09:46:35.852Z,11.07
2022-12-15T09:49:11.353Z,10.00
2022-12-15T09:51:53.307Z,10.37
2022-12-15T09:54:22.748Z,10.80
2022-12-15T09:56:58.334Z,12.07
2022-12-15T09:59:33.291Z,11.43
2022-12-15T10:02:18.332Z,10.87
2022-12-15T10:04:57.192Z,11.37
2022-12-15T10:07:36.769Z,11.67
2022-12-15T10:10:24.667Z,10.77
2022-12-15T10:13:01.769Z,11.53
2022-12-15T10:15:44.680Z,11.40
2022-12-15T10:18:22.348Z,10.07
2022-12-15T10:20:53.960Z,10.90
2022-12-15T10:23:21.348Z,11.67
2022-12-15T10:25:55.327Z,9.90
2022-12-15T10:28:28.715Z,11.27
2022-12-15T10:31:00.411Z,10.60
2022-12-15T10:33:37.743Z,9.57
2022-12-15T10:36:13.236Z,10.60
2022-12-15T10:38:45.333Z,10.13
2022-12-15T10:41:14.335Z,10.30
2022-12-15T10:43:43.722Z,10.10
2022-12-15T10:46:24.956Z,10.17
2022-12-15T10:49:00.354Z,9.87
2022-12-15T10:51:32.312Z,11.30
2022-12-15T10:54:03.275Z,11.47
2022-12-15T10:56:33.955Z,11.10
2022-12-15T10:59:20.439Z,11.17
2022-12-15T11:01:47.320Z,10.47
2022-12-15T11:04:40.364Z,11.27
2022-12-15T11:07:13.732Z,9.73
2022-12-15T11:09:40.548Z,10.90
2022-12-15T11:12:37.521Z,10.53
2022-12-15T11:15:24.159Z,10.70
2022-12-15T11:18:01.599Z,11.00
2022-12-15T11:20:35.080Z,10.77
2022-12-15T11:23:13.938Z,10.63
2022-12-15T11:25:46.058Z,10.67
2022-12-15T11:28:20.057Z,10.97
2022-12-15T11:31:03.866Z,9.93
2022-12-15T11:33:31.129Z,9.77
2022-12-15T11:36:26.214Z,9.80
2022-12-15T11:39:01.826Z,9.73
2022-12-15T11:41:45.086Z,9.50
2022-12-15T11:44:23.689Z,10.10
2022-12-15T11:47:09.854Z,9.90
2022-12-15T11:49:58.601Z,9.63
2022-12-15T11:52:46.792Z,10.80
2022-12-15T11:55:31.082Z,11.00
2022-12-15T11:58:13.201Z,10.80
2022-12-15T12:00:44.657Z,9.90
2022-12-15T12:03:30.565Z,10.43
2022-12-15T12:06:33.170Z,9.60
2022-12-15T12:09:06.813Z,9.83
2022-12-15T12:11:53.969Z,19.20
2022-12-15T12:14:43.709Z,15.30
2022-12-15T12:17:16.996Z,10.27
2022-12-15T12:19:50.945Z,8.37
2022-12-15T12:22:20.443Z,9.13
2022-12-15T12:25:21.380Z,10.57
2022-12-15T12:28:15.467Z,9.87
2022-12-15T12:30:48.717Z,11.27
2022-12-15T12:33:41.236Z,9.80
2022-12-15T12:36:12.979Z,8.20
2022-12-15T12:38:50.603Z,9.17
2022-12-15T12:41:34.063Z,7.90
2022-12-15T12:44:09.087Z,8.13
2022-12-15T12:46:51.023Z,7.80
2022-12-15T12:49:27.153Z,7.83
2022-12-15T12:52:00.497Z,8.00
2022-12-15T12:54:36.593Z,8.27
2022-12-15T12:57:12.374Z,8.23
2022-12-15T12:59:48.887Z,7.77
2022-12-15T13:02:22.108Z,7.63
2022-12-15T13:04:57.789Z,7.47
2022-12-15T13:07:38.612Z,8.57
2022-12-15T13:10:08.079Z,8.77
2022-12-15T13:12:52.075Z,8.70
2022-12-15T13:15:31.216Z,9.10
2022-12-15T13:18:24.596Z,8.33
2022-12-15T13:20:56.041Z,9.57
2022-12-15T13:23:25.444Z,9.50
2022-12-15T13:25:57.869Z,9.33
2022-12-15T13:28:34.875Z,8.17
2022-12-15T13:31:16.904Z,10.53
2022-12-15T13:33:49.614Z,10.97
2022-12-15T13:36:38.186Z,8.57
2022-12-15T13:39:17.237Z,8.80
2022-12-15T13:42:07.370Z,8.93
2022-12-15T13:44:32.198Z,8.80
2022-12-15T13:47:19.048Z,11.03
2022-12-15T13:50:03.181Z,9.77
2022-12-15T13:53:16.510Z,9.33
2022-12-15T13:58:18.689Z,9.00
2022-12-15T14:00:52.100Z,9.07
2022-12-15T14:03:19.779Z,8.50
2022-12-15T14:05:53.340Z,7.90
2022-12-15T14:08:22.984Z,8.40
2022-12-15T14:11:07.092Z,7.87
2022-12-15T14:13:46.012Z,8.03
2022-12-15T14:16:21.788Z,7.77
2022-12-15T14:19:13.324Z,8.97
2022-12-15T14:21:40.445Z,8.93
2022-12-15T14:24:37.971Z,8.40
2022-12-15T14:27:05.964Z,8.97
2022-12-15T14:29:32.637Z,7.43
2022-12-15T14:32:00.226Z,7.67
2022-12-15T14:34:33.162Z,7.77
2022-12-15T14:37:03.374Z,7.57
2022-12-15T14:39:37.344Z,10.00
2022-12-15T14:42:07.425Z,8.20
2022-12-15T14:44:39.213Z,8.00
2022-12-15T14:47:16.514Z,7.30
2022-12-15T14:49:45.442Z,7.03
2022-12-15T14:52:27.123Z,8.17
2022-12-15T14:54:57.302Z,8.03
2022-12-15T14:57:40.420Z,8.57
2022-12-15T15:00:25.844Z,8.37
2022-12-15T15:05:59.891Z,7.93
2022-12-15T15:08:29.376Z,7.17
2022-12-15T15:10:59.520Z,7.83
2022-12-15T15:13:40.017Z,7.43
2022-12-15T15:16:13.975Z,7.67
2022-12-15T15:18:42.361Z,8.00
2022-12-15T15:21:16.882Z,7.17
2022-12-15T15:24:00.998Z,7.97
2022-12-15T15:26:29.283Z,6.33
2022-12-15T15:28:56.056Z,7.70
2022-12-15T15:31:27.231Z,6.80
2022-12-15T15:33:58.993Z,6.53
2022-12-15T15:36:37.354Z,6.80
2022-12-15T15:39:15.488Z,7.17
2022-12-15T15:41:42.533Z,7.27
2022-12-15T15:44:14.546Z,7.73
2022-12-15T15:46:51.951Z,7.30
2022-12-15T15:49:21.647Z,7.57
2022-12-15T15:51:48.964Z,7.63
2022-12-15T15:54:23.482Z,8.10
2022-12-15T15:56:50.262Z,7.10
2022-12-15T15:59:20.981Z,7.40
2022-12-15T16:01:54.384Z,7.70
2022-12-15T16:04:22.177Z,7.57
2022-12-15T16:06:49.618Z,7.33
2022-12-15T16:09:17.004Z,7.23
2022-12-15T16:11:45.707Z,7.40
2022-12-15T16:14:14.376Z,7.57
2022-12-15T16:16:41.877Z,7.37
2022-12-15T16:19:09.001Z,7.27
2022-12-15T16:21:36.189Z,6.67
2022-12-15T16:24:10.971Z,6.47
2022-12-15T16:26:38.873Z,7.03
2022-12-15T16:29:14.730Z,6.97
2022-12-15T16:31:45.364Z,6.97
2022-12-15T16:34:13.335Z,7.43
2022-12-15T16:36:40.660Z,7.23
2022-12-15T16:39:36.795Z,7.43
2022-12-15T16:42:04.037Z,7.70
2022-12-15T16:44:30.815Z,7.47
2022-12-15T16:46:58.744Z,7.33
2022-12-15T16:49:26.587Z,6.67
2022-12-15T16:51:54.044Z,7.33
2022-12-15T16:54:25.249Z,6.90
2022-12-15T16:56:54.009Z,7.10
2022-12-15T16:59:39.146Z,7.90
2022-12-15T17:02:29.454Z,8.53
2022-12-15T17:04:56.360Z,8.50
2022-12-15T17:07:26.234Z,9.47
2022-12-15T17:09:53.071Z,8.97
2022-12-15T17:12:19.897Z,9.10
2022-12-15T17:14:46.849Z,9.60
2022-12-15T17:17:15.452Z,9.00
2022-12-15T17:20:11.647Z,9.87
2022-12-15T17:22:32.688Z,9.17
2022-12-15T17:24:59.366Z,8.87
2022-12-15T17:27:28.267Z,8.47
2022-12-15T17:29:58.002Z,9.00
2022-12-15T17:32:24.687Z,9.20
2022-12-15T17:34:51.929Z,9.20
2022-12-15T17:37:18.859Z,8.87
2022-12-15T17:39:50.713Z,9.60
2022-12-15T17:42:22.171Z,9.10
2022-12-15T17:44:49.238Z,9.10
2022-12-15T17:47:18.640Z,9.43
2022-12-15T17:49:46.877Z,8.70
2022-12-15T17:52:26.111Z,9.73
2022-12-15T17:54:53.587Z,9.43
2022-12-15T17:57:20.686Z,8.97
2022-12-15T17:59:48.028Z,8.67
2022-12-15T18:02:15.546Z,9.33
2022-12-15T18:04:43.477Z,8.57
2022-12-15T18:07:17.035Z,8.97
2022-12-15T18:09:44.066Z,10.00
2022-12-15T18:12:23.334Z,8.63
2022-12-15T18:14:50.650Z,9.90
2022-12-15T18:17:17.392Z,8.87
2022-12-15T18:19:44.927Z,8.77
2022-12-15T18:22:15.217Z,8.87
2022-12-15T18:24:42.211Z,9.03
2022-12-15T18:27:19.654Z,8.47
2022-12-15T18:29:46.371Z,8.30
2022-12-15T18:32:13.177Z,8.37
2022-12-15T18:34:39.784Z,8.70
2022-12-15T18:37:15.139Z,8.77
2022-12-15T18:39:41.830Z,8.27
2022-12-15T18:42:14.717Z,8.30
2022-12-15T18:44:45.830Z,8.13
2022-12-15T18:47:23.497Z,8.50
2022-12-15T18:49:50.548Z,9.13
2022-12-15T18:52:21.462Z,8.77
2022-12-15T18:54:50.283Z,8.60
2022-12-15T18:57:35.776Z,8.67
2022-12-15T19:00:16.452Z,8.47
2022-12-15T19:02:43.345Z,9.77
2022-12-15T19:05:27.550Z,9.37
2022-12-15T19:08:01.507Z,8.77
2022-12-15T19:10:31.830Z,8.43
2022-12-15T19:12:58.980Z,8.37
2022-12-15T19:15:25.901Z,8.67
2022-12-15T19:18:11.610Z,8.43
2022-12-15T19:20:57.514Z,7.97
2022-12-15T19:23:24.401Z,7.60
2022-12-15T19:25:52.903Z,8.53
2022-12-15T19:28:24.333Z,8.50
2022-12-15T19:30:52.130Z,8.30
2022-12-15T19:33:19.943Z,8.63
2022-12-15T19:35:50.934Z,7.90
2022-12-15T19:38:25.411Z,8.57
2022-12-15T19:40:55.008Z,8.30
2022-12-15T19:43:23.540Z,8.03
2022-12-15T19:45:52.022Z,8.80
2022-12-15T19:48:23.845Z,10.43
2022-12-15T19:50:52.359Z,8.77
2022-12-15T19:53:24.038Z,8.63
2022-12-15T19:55:53.636Z,8.50
2022-12-15T19:58:34.127Z,8.37
2022-12-15T20:01:05.561Z,9.57
2022-12-15T20:03:33.551Z,9.33
2022-12-15T20:06:02.093Z,7.33
2022-12-15T20:08:34.311Z,8.83
2022-12-15T20:11:01.149Z,9.03
2022-12-15T20:13:27.795Z,8.33
2022-12-15T20:15:55.277Z,8.00
2022-12-15T20:18:22.140Z,9.13
2022-12-15T20:20:49.608Z,8.83
2022-12-15T20:23:25.971Z,8.60
2022-12-15T20:25:53.961Z,7.70
2022-12-15T20:28:28.437Z,8.77
2022-12-15T20:30:56.524Z,9.00
2022-12-15T20:33:23.205Z,9.80
2022-12-15T20:35:50.712Z,9.47
2022-12-15T20:38:23.489Z,8.90
2022-12-15T20:40:50.641Z,9.37
2022-12-15T20:43:20.481Z,9.40
2022-12-15T20:45:54.706Z,8.97
2022-12-15T20:48:24.802Z,8.00
2022-12-15T20:50:53.890Z,8.77
2022-12-15T20:53:23.948Z,9.17
2022-12-15T20:55:52.731Z,8.73
2022-12-15T20:58:20.412Z,8.83
2022-12-15T21:00:51.959Z,9.50
2022-12-15T21:03:20.680Z,8.57
2022-12-15T21:05:49.003Z,8.53
2022-12-15T21:08:19.308Z,8.60
2022-12-15T21:10:46.464Z,9.13
2022-12-15T21:13:17.840Z,9.20
2022-12-15T21:15:44.577Z,10.20
2022-12-15T21:18:51.885Z,11.27
2022-12-15T21:20:59.247Z,12.80
2022-12-15T21:23:29.356Z,13.73
2022-12-15T21:25:57.791Z,12.23
2022-12-15T21:28:25.435Z,8.93
2022-12-15T21:30:52.245Z,8.43
2022-12-15T21:33:18.995Z,8.40
2022-12-15T21:35:47.321Z,8.23
2022-12-15T21:38:28.420Z,8.27
2022-12-15T21:41:04.970Z,9.23
2022-12-15T21:43:34.872Z,7.77
2022-12-15T21:46:04.249Z,8.60
2022-12-15T21:48:49.652Z,8.30
2022-12-15T21:51:17.430Z,8.33
2022-12-15T21:53:46.001Z,7.57
2022-12-15T21:56:17.261Z,8.10
2022-12-15T21:58:51.404Z,8.37
2022-12-15T22:01:24.838Z,8.53
2022-12-15T22:03:54.614Z,8.57
2022-12-15T22:06:26.900Z,8.07
2022-12-15T22:08:55.210Z,7.90
2022-12-15T22:11:24.960Z,8.17
2022-12-15T22:13:53.218Z,8.00
2022-12-15T22:16:22.697Z,7.40
2022-12-15T22:18:53.201Z,8.30
2022-12-15T22:21:22.337Z,8.00
2022-12-15T22:23:50.693Z,7.43
2022-12-15T22:26:31.393Z,8.23
2022-12-15T22:29:02.879Z,8.43
2022-12-15T22:31:29.701Z,9.60
2022-12-15T22:33:56.434Z,8.43
2022-12-15T22:36:24.243Z,8.73
2022-12-15T22:38:50.955Z,8.47
2022-12-15T22:41:20.549Z,9.33
2022-12-15T22:43:51.981Z,8.40
2022-12-15T22:46:21.122Z,8.73
2022-12-15T22:48:47.984Z,9.00
2022-12-15T22:51:16.919Z,8.27
2022-12-15T22:53:43.869Z,8.23
2022-12-15T22:56:36.541Z,8.83
2022-12-15T22:59:07.209Z,8.53
2022-12-15T23:01:34.519Z,8.50
2022-12-15T23:04:01.201Z,8.10
2022-12-15T23:06:28.239Z,8.57
2022-12-15T23:08:56.249Z,8.10
2022-12-15T23:11:38.579Z,7.17
2022-12-15T23:14:08.291Z,7.63
2022-12-15T23:16:35.329Z,7.73
2022-12-15T23:19:02.323Z,7.43
2022-12-15T23:21:29.811Z,7.30
2022-12-15T23:23:57.782Z,7.60
2022-12-15T23:26:25.791Z,6.93
2022-12-15T23:28:53.582Z,6.47
2022-12-15T23:31:22.380Z,6.57
2022-12-15T23:33:49.887Z,6.40
2022-12-15T23:36:18.909Z,6.43
2022-12-15T23:38:46.098Z,6.17
2022-12-15T23:41:17.493Z,6.20
2022-12-15T23:43:44.241Z,6.37
2022-12-15T23:46:11.010Z,6.10
2022-12-15T23:48:43.036Z,6.10
2022-12-15T23:51:12.440Z,5.17
2022-12-15T23:53:40.227Z,5.27
2022-12-15T23:56:14.788Z,5.17
2022-12-15T23:58:43.052Z,4.27
